Latest Weather Observations for Newman Airport

IDW60801

Issued at 4:32 pm WST Monday 31 August 2015 (issued every 30 minutes, with the page automatically refreshed every 10 minutes)

About weather observations | Map of weather stations | Latest weather observations for WA | Other Formats
Station Details ID: 007176 Name: NEWMAN AERO Lat: -23.42 Lon: 119.80 Height: 524.0 m
Data from the previous 72 hours. | See also: Recent months at Newman Airport
Date/Time
WST
Temp
°C
App
Temp
°C
Dew
Point
Rel
Hum
%
Delta-T
°C
Wind Press
QNH
hPa
Press
MSL
hPa
Rain
since 9 am
mm
Dir
 
Spd
km/h
Gust
km/h
Spd
kts
Gust
kts
31/04:30pm 26.5 21.6 1.7 20 12.2 SW 17 26 9 14 1014.9 1013.6 0.0
31/04:00pm 26.7 23.3 1.9 20 12.3 SW 9 20 5 11 1014.8 1013.4 0.0
31/03:30pm 26.9 22.4 2.1 20 12.3 SSW 15 26 8 14 1014.7 1013.3 0.0
31/03:00pm 26.6 22.4 1.8 20 12.2 WSW 13 20 7 11 1014.9 1013.6 0.0
31/02:30pm 26.0 21.7 1.3 20 12.0 SW 13 30 7 16 1015.2 1013.9 0.0
31/02:00pm 26.4 23.1 2.3 21 12.0 SSW 9 15 5 8 1015.4 1014.0 0.0
31/01:30pm 26.2 22.7 1.5 20 12.1 WSW 9 26 5 14 1015.8 1014.4 0.0
31/01:00pm 25.9 21.9 2.6 22 11.6 SSW 13 24 7 13 1016.2 1014.8 0.0
31/12:30pm 25.8 21.4 2.5 22 11.6 SW 15 28 8 15 1016.6 1015.3 0.0
31/12:00pm 26.1 22.1 2.7 22 11.7 SSE 13 26 7 14 1016.8 1015.5 0.0
31/11:30am 25.2 20.4 2.6 23 11.2 SSE 17 28 9 15 1017.2 1015.9 0.0
31/11:00am 24.0 18.8 2.2 24 10.6 SE 19 32 10 17 1017.8 1016.4 0.0
31/10:30am 23.3 18.4 2.2 25 10.3 SE 17 24 9 13 1018.4 1017.1 0.0
31/10:00am 23.2 17.9 2.1 25 10.2 SE 19 26 10 14 1018.6 1017.3 0.0
31/09:30am 22.3 17.8 1.9 26 9.8 ESE 15 22 8 12 1018.7 1017.4 0.0
31/09:00am 21.0 17.7 2.3 29 8.9 SSE 9 17 5 9 1018.8 1017.5 0.0
31/08:30am 19.0 15.2 2.0 32 8.0 SE 11 20 6 11 1018.7 1017.4 0.0
31/08:00am 17.2 13.9 2.4 37 6.9 SSE 9 15 5 8 1018.5 1017.2 0.0
31/07:30am 15.4 12.2 2.9 43 5.8 SW 9 11 5 6 1018.3 1017.0 0.0
31/07:00am 13.1 9.6 3.5 52 4.4 WSW 11 13 6 7 1018.0 1016.6 0.0
31/06:30am 11.1 7.9 2.9 57 3.7 WSW 9 9 5 5 1017.7 1016.3 0.0
31/06:00am 11.3 8.1 2.9 56 3.8 WSW 9 11 5 6 1017.5 1016.1 0.0
31/05:30am 11.7 8.5 3.0 55 3.9 WSW 9 11 5 6 1017.5 1016.1 0.0
31/05:00am 11.9 9.1 2.9 54 4.1 SW 7 9 4 5 1017.2 1015.9 0.0
31/04:30am 12.3 9.1 3.0 53 4.2 SW 9 11 5 6 1017.0 1015.7 0.0
31/04:00am 12.9 10.3 3.0 51 4.5 WSW 6 7 3 4 1016.8 1015.5 0.0
31/03:30am 12.7 9.1 3.1 52 4.4 SW 11 11 6 6 1016.8 1015.5 0.0
31/03:00am 12.7 10.1 3.1 52 4.4 WSW 6 7 3 4 1017.1 1015.8 0.0
31/02:30am 13.5 10.7 3.3 50 4.7 SW 7 11 4 6 1017.2 1015.9 0.0
31/02:00am 14.1 12.7 3.3 48 5.0 CALM 0 0 0 0 1017.4 1016.0 0.0
31/01:30am 14.9 12.1 3.1 45 5.5 WSW 7 9 4 5 1017.5 1016.1 0.0
31/01:00am 15.8 12.6 2.9 42 6.0 SW 9 11 5 6 1017.4 1016.0 0.0
31/12:30am 16.0 12.0 3.1 42 6.0 SW 13 19 7 10 1017.6 1016.2 0.0
31/12:00am 16.9 12.5 2.9 39 6.6 SW 15 19 8 10 1017.6 1016.2 0.0
 
Date/Time
WST
Temp
°C
App
Temp
°C
Dew
Point
Rel
Hum
%
Delta-T
°C
Wind Press
QNH
hPa
Press
MSL
hPa
Rain
since 9 am
mm
Dir
 
Spd
km/h
Gust
km/h
Spd
kts
Gust
kts
30/11:30pm 16.5 12.9 3.2 41 6.3 SW 11 13 6 7 1017.9 1016.5 0.0
30/11:00pm 17.0 13.4 3.0 39 6.6 WSW 11 13 6 7 1018.1 1016.7 0.0
30/10:30pm 17.5 14.3 3.0 38 6.9 SW 9 11 5 6 1018.3 1017.0 0.0
30/10:00pm 18.6 14.6 2.9 35 7.5 WSW 13 15 7 8 1018.2 1016.8 0.0
30/09:30pm 19.1 15.2 3.3 35 7.6 WSW 13 19 7 10 1018.2 1016.8 0.0
30/09:00pm 19.6 15.7 3.3 34 7.9 SW 13 15 7 8 1018.2 1016.8 0.0
30/08:30pm 20.4 16.8 3.2 32 8.3 SW 11 15 6 8 1018.1 1016.7 0.0
30/08:00pm 20.6 17.4 3.3 32 8.4 SW 9 11 5 6 1017.9 1016.5 0.0
30/07:30pm 21.9 18.7 3.1 29 9.2 SW 9 13 5 7 1017.7 1016.3 0.0
30/07:00pm 22.2 19.4 3.3 29 9.3 SSW 7 9 4 5 1017.4 1016.0 0.0
30/06:30pm 22.7 19.5 3.3 28 9.6 SW 9 9 5 5 1017.2 1015.9 0.0
30/06:00pm 23.6 20.5 3.5 27 10.0 SSW 9 11 5 6 1016.9 1015.6 0.0
30/05:30pm 25.3 21.8 3.3 24 11.1 SW 11 15 6 8 1016.6 1015.3 0.0
30/05:00pm 26.2 23.0 2.8 22 11.7 WSW 9 17 5 9 1016.5 1015.1 0.0
30/04:30pm 26.8 22.8 2.7 21 12.1 S 13 19 7 10 1016.4 1015.0 0.0
30/04:00pm 26.9 22.1 2.7 21 12.2 S 17 24 9 13 1016.2 1014.8 0.0
30/03:30pm 27.7 24.1 2.7 20 12.6 W 11 19 6 10 1016.1 1014.7 0.0
30/03:00pm 27.1 23.1 2.9 21 12.2 S 13 19 7 10 1016.3 1014.9 0.0
30/02:30pm 27.5 24.2 2.6 20 12.5 SW 9 17 5 9 1016.4 1015.0 0.0
30/02:00pm 27.0 23.4 2.8 21 12.2 S 11 24 6 13 1016.7 1015.4 0.0
30/01:30pm 27.0 23.6 4.1 23 11.8 SW 11 20 6 11 1016.9 1015.6 0.0
30/01:00pm 26.2 22.4 4.1 24 11.3 SW 13 24 7 13 1017.2 1015.9 0.0
30/12:30pm 25.9 21.8 4.4 25 11.1 SSE 15 22 8 12 1017.5 1016.1 0.0
30/12:00pm 25.5 21.0 4.0 25 10.9 SSE 17 28 9 15 1018.1 1016.7 0.0
30/11:30am 25.1 21.4 4.3 26 10.6 SSE 13 24 7 13 1018.7 1017.4 0.0
30/11:00am 24.4 20.3 4.2 27 10.2 SSE 15 22 8 12 1019.2 1017.9 0.0
30/10:30am 24.0 19.5 4.4 28 10.0 S 17 28 9 15 1019.6 1018.2 0.0
30/10:00am 23.0 18.0 3.5 28 9.7 S 19 28 10 15 1019.8 1018.4 0.0
30/09:30am 22.6 18.1 4.2 30 9.2 S 17 26 9 14 1019.8 1018.4 0.0
30/09:00am 21.5 17.1 4.6 33 8.5 S 17 24 9 13 1019.7 1018.3 -
30/08:30am 19.1 15.5 4.8 39 7.1 SSW 13 19 7 10 1019.5 1018.1 -
30/08:00am 18.1 13.6 4.3 40 6.7 SW 17 24 9 13 1019.2 1017.9 -
30/07:30am 16.4 13.3 5.4 48 5.4 SW 11 17 6 9 1018.9 1017.6 -
30/07:00am 14.2 10.5 4.5 52 4.6 WSW 13 17 7 9 1018.6 1017.3 -
30/06:30am 13.5 9.4 4.4 54 4.3 WSW 15 19 8 10 1018.1 1016.7 -
30/06:00am 13.2 9.5 4.4 55 4.1 WSW 13 15 7 8 1017.7 1016.3 -
30/05:30am 12.6 9.7 4.6 58 3.8 WSW 9 11 5 6 1017.4 1016.0 -
30/05:00am 13.1 10.1 4.3 55 4.1 WSW 9 13 5 7 1017.1 1015.8 -
30/04:30am 13.2 10.3 4.4 55 4.1 WSW 9 11 5 6 1016.7 1015.4 -
30/04:00am 14.1 10.4 4.4 52 4.6 WSW 13 17 7 9 1016.5 1015.1 -
30/03:30am 14.3 11.0 4.6 52 4.6 WSW 11 13 6 7 1016.6 1015.3 -
30/03:00am 13.8 10.9 4.4 53 4.4 WSW 9 11 5 6 1016.5 1015.1 0.0
30/02:30am 14.2 11.3 4.5 52 4.6 WSW 9 11 5 6 1016.4 1015.0 -
30/02:00am 14.9 12.4 4.6 50 4.9 SW 7 11 4 6 1016.5 1015.1 -
30/01:30am 15.2 12.3 4.6 49 5.1 WSW 9 13 5 7 1016.5 1015.1 -
30/01:00am 14.6 11.7 4.6 51 4.8 WSW 9 11 5 6 1016.5 1015.1 -
30/12:30am 14.9 12.6 4.6 50 4.9 WSW 6 9 3 5 1016.7 1015.4 -
30/12:00am 16.3 13.8 5.0 47 5.5 W 7 9 4 5 1016.7 1015.4 -
 
Date/Time
WST
Temp
°C
App
Temp
°C
Dew
Point
Rel
Hum
%
Delta-T
°C
Wind Press
QNH
hPa
Press
MSL
hPa
Rain
since 9 am
mm
Dir
 
Spd
km/h
Gust
km/h
Spd
kts
Gust
kts
29/11:30pm 17.6 15.4 5.2 44 6.1 WNW 6 9 3 5 1016.7 1015.4 -
29/11:00pm 18.5 15.7 5.0 41 6.7 W 9 11 5 6 1016.7 1015.4 -
29/10:30pm 19.2 16.0 4.9 39 7.1 W 11 13 6 7 1016.8 1015.5 -
29/10:00pm 19.8 16.9 4.7 37 7.5 W 9 13 5 7 1016.9 1015.6 -
29/09:30pm 20.5 17.6 4.5 35 8.0 W 9 11 5 6 1017.0 1015.7 -
29/09:00pm 22.1 18.4 4.6 32 8.8 WSW 13 20 7 11 1016.9 1015.6 -
29/08:30pm 22.6 18.8 3.7 29 9.4 W 13 19 7 10 1016.7 1015.4 -
29/08:00pm 23.5 19.6 3.4 27 10.0 NNW 13 19 7 10 1016.1 1014.7 -
29/07:30pm 24.4 20.1 3.1 25 10.6 N 15 20 8 11 1015.6 1014.2 -
29/07:00pm 24.6 20.5 2.1 23 11.0 N 13 17 7 9 1015.2 1013.9 -
29/06:30pm 25.4 20.9 2.2 22 11.4 N 15 20 8 11 1014.9 1013.6 -
29/06:00pm 26.3 21.3 1.6 20 12.1 NNW 17 24 9 13 1014.6 1013.2 -
29/05:30pm 27.5 21.2 1.8 19 12.8 N 24 33 13 18 1014.2 1012.8 -
29/05:00pm 28.2 22.4 2.4 19 13.0 N 22 35 12 19 1013.9 1012.5 -
29/04:30pm 28.7 23.0 2.8 19 13.2 N 22 35 12 19 1013.9 1012.5 -
29/09:00am 20.1 17.9 7.8 45 6.5 SSW 9 15 5 8 1018.3 1017.0 0.2
29/08:30am 18.9 - - - - WSW 11 17 6 9 1018.1 1016.7 0.0
29/08:00am 17.7 - - - - SW 9 11 5 6 1017.8 1016.4 0.0
29/07:30am 15.3 - - - - SSW 6 9 3 5 1017.6 1016.2 0.0
29/07:00am 11.8 - - - - CALM 0 0 0 0 1017.2 1015.9 0.0
29/06:30am 10.2 - - - - SSE 6 7 3 4 1016.9 1015.6 0.0
29/06:00am 10.2 - - - - SSE 6 7 3 4 1016.6 1015.3 0.0
29/05:30am 11.0 - - - - SE 6 11 3 6 1016.1 1014.7 0.0
29/05:00am 12.4 - - - - E 7 9 4 5 1015.8 1014.4 0.0
29/04:30am 12.3 - - - - NNE 2 9 1 5 1015.8 1014.4 0.0
29/04:00am 12.8 - - - - CALM 0 0 0 0 1015.6 1014.2 0.0
29/03:30am 12.7 - - - - CALM 0 0 0 0 1015.6 1014.2 0.0
29/03:00am 13.3 - - - - CALM 0 0 0 0 1015.8 1014.4 0.0
29/02:30am 14.1 - - - - CALM 0 0 0 0 1015.7 1014.3 0.0
29/02:00am 14.9 - - - - CALM 0 0 0 0 1015.8 1014.4 0.0
29/01:30am 14.6 - - - - CALM 0 0 0 0 1016.1 1014.7 0.0
29/01:00am 15.4 - - - - NW 4 6 2 3 1016.4 1015.0 0.0
29/12:30am 16.4 - - - - NW 6 7 3 4 1016.4 1015.0 0.0
29/12:00am 16.9 - - - - NNW 7 9 4 5 1016.7 1015.4 0.0
 
Date/Time
WST
Temp
°C
App
Temp
°C
Dew
Point
Rel
Hum
%
Delta-T
°C
Wind Press
QNH
hPa
Press
MSL
hPa
Rain
since 9 am
mm
Dir
 
Spd
km/h
Gust
km/h
Spd
kts
Gust
kts
28/11:30pm 19.2 - - - - NNW 11 11 6 6 1016.8 1015.5 0.0
28/11:00pm 20.4 - - - - NNW 11 13 6 7 1016.8 1015.5 0.0
28/10:30pm 21.5 - - - - NW 11 15 6 8 1017.1 1015.8 0.0
28/10:00pm 21.6 - - - - NW 15 17 8 9 1017.2 1015.9 0.0
28/09:30pm 21.4 - - - - NW 13 17 7 9 1017.4 1016.0 0.0
28/09:00pm 21.2 - - - - NW 13 15 7 8 1017.4 1016.0 0.0
28/08:30pm 21.8 - - - - NNW 9 11 5 6 1017.2 1015.9 0.0
28/08:00pm 22.3 - - - - NW 11 13 6 7 1016.9 1015.6 0.0
28/07:30pm 22.9 - - - - NW 11 13 6 7 1016.6 1015.3 0.0
28/07:00pm 24.2 - - - - NNW 11 13 6 7 1016.3 1014.9 0.0
28/06:30pm 25.2 - - - - NNW 11 13 6 7 1015.9 1014.5 0.0
28/06:00pm 26.2 - - - - N 11 13 6 7 1015.5 1014.1 0.0
28/05:30pm 27.8 - - - - NNW 15 20 8 11 1015.1 1013.8 0.0
28/05:00pm 28.8 - - - - NW 20 26 11 14 1014.8 1013.4 0.0

Other Formats:

Comma delimited format used in spreadsheet applications
http://www.bom.gov.au/fwo/IDW60801/IDW60801.94317.axf

JavaScript Object Notation format (JSON) in row-major order
http://www.bom.gov.au/fwo/IDW60801/IDW60801.94317.json